Time;durP1;ratioP1;P1;durP2;ratioP2;P2;SDS_P1;SDS_P2;PMS_P1;PMS_P2;Temp;Humidity;BMP_temperature;BMP_pressure;BME280_temperature;BME280_humidity;BME280_pressure;Samples;Min_cycle;Max_cycle;Signal;HPM_P1;HPM_P2
2023/08/11 00:00:39;;;;;;;4.32;2.17;;;;;;;17.24;94.06;99053.19;4201364;28;20241;-48
2023/08/11 00:02:41;;;;;;;3.50;2.30;;;;;;;17.16;94.46;99050.16;4209998;28;20238;-48
2023/08/11 00:04:43;;;;;;;4.95;2.20;;;;;;;17.15;94.65;99054.03;4201752;28;20226;-49
2023/08/11 00:06:45;;;;;;;5.50;2.45;;;;;;;17.13;95.12;99045.19;4208448;28;20215;-48
2023/08/11 00:08:46;;;;;;;2.35;1.83;;;;;;;17.04;95.18;99047.69;4221868;28;20206;-48
2023/08/11 00:10:48;;;;;;;4.72;2.75;;;;;;;17.06;95.79;99044.66;4202973;28;20701;-48
2023/08/11 00:12:50;;;;;;;4.78;2.70;;;;;;;17.01;95.54;99052.94;4202288;28;20234;-48
2023/08/11 00:14:52;;;;;;;3.45;1.92;;;;;;;16.95;96.15;99042.19;4201895;28;20233;-49
2023/08/11 00:16:54;;;;;;;3.08;2.72;;;;;;;16.93;96.15;99050.75;4205073;28;20202;-48
2023/08/11 00:18:56;;;;;;;2.92;2.22;;;;;;;16.90;96.17;99043.00;4204489;28;20211;-48
2023/08/11 00:20:59;;;;;;;3.35;2.88;;;;;;;16.90;95.95;99045.75;4199916;28;20211;-48
2023/08/11 00:23:01;;;;;;;5.07;2.75;;;;;;;16.88;95.80;99045.22;4202371;28;20619;-48
2023/08/11 00:25:04;;;;;;;2.47;2.28;;;;;;;16.84;96.03;99041.34;4190078;28;20231;-48
2023/08/11 00:27:06;;;;;;;5.97;2.85;;;;;;;16.83;95.41;99047.97;4209268;28;20210;-49
2023/08/11 00:29:08;;;;;;;3.88;2.72;;;;;;;16.93;95.69;99047.97;4203294;28;20232;-48
2023/08/11 00:31:10;;;;;;;2.63;2.22;;;;;;;16.90;95.50;99043.00;4203410;28;20657;-48
2023/08/11 00:33:12;;;;;;;4.95;3.28;;;;;;;16.62;96.03;99043.56;4182744;28;20245;-48
2023/08/11 00:35:13;;;;;;;2.70;2.42;;;;;;;16.74;96.76;99041.34;4201722;28;20215;-48
2023/08/11 00:37:16;;;;;;;5.55;3.33;;;;;;;16.66;96.54;99043.84;4189479;28;20212;-49
2023/08/11 00:39:17;;;;;;;2.72;2.45;;;;;;;16.69;96.29;99038.59;4198894;28;20214;-48
2023/08/11 00:41:19;;;;;;;5.63;3.10;;;;;;;16.56;97.57;99039.13;4206023;28;20222;-49
2023/08/11 00:43:21;;;;;;;2.55;2.35;;;;;;;16.41;97.78;99044.66;4202526;28;20231;-48
2023/08/11 00:45:23;;;;;;;2.83;2.55;;;;;;;16.42;97.73;99042.72;4218737;28;20223;-48
2023/08/11 00:47:26;;;;;;;3.22;2.90;;;;;;;16.36;97.70;99050.13;4201254;28;20210;-49
2023/08/11 00:49:28;;;;;;;2.85;2.55;;;;;;;16.30;98.36;99040.19;4206404;28;20246;-48
2023/08/11 00:51:31;;;;;;;5.65;2.88;;;;;;;16.34;98.52;99040.47;4202785;28;20211;-48
2023/08/11 00:53:33;;;;;;;4.53;2.50;;;;;;;16.33;97.96;99028.59;4205655;28;20375;-49
2023/08/11 00:55:35;;;;;;;6.15;2.72;;;;;;;16.36;97.79;99028.03;4208127;28;20207;-49
2023/08/11 00:57:37;;;;;;;5.55;3.50;;;;;;;16.39;97.68;99035.81;4199694;28;20265;-48
2023/08/11 00:59:40;;;;;;;5.55;2.90;;;;;;;16.36;97.83;99033.56;4202983;28;20607;-48
2023/08/11 01:01:41;;;;;;;3.55;3.22;;;;;;;16.33;97.34;99028.59;4209567;28;20279;-48
2023/08/11 01:03:45;;;;;;;3.65;3.25;;;;;;;16.30;97.55;99026.38;4221350;28;20222;-49
2023/08/11 01:05:54;;;;;;;4.18;2.75;;;;;;;16.26;97.63;99025.28;4203450;28;20229;-49
2023/08/11 01:08:25;;;;;;;3.05;2.30;;;;;;;16.26;97.16;99022.50;4203524;28;20198;-49
2023/08/11 01:10:52;;;;;;;3.17;2.88;;;;;;;16.32;96.61;99021.41;4200317;28;20257;-48
2023/08/11 01:12:58;;;;;;;3.60;2.70;;;;;;;16.38;97.34;99028.66;4166467;28;20281;-48
2023/08/11 01:15:10;;;;;;;2.25;2.00;;;;;;;16.40;97.21;99023.66;4219278;28;20246;-48
2023/08/11 01:17:13;;;;;;;7.32;2.97;;;;;;;16.38;97.14;99025.88;4202295;28;20264;-47
2023/08/11 01:19:32;;;;;;;2.53;2.33;;;;;;;16.33;96.86;99023.06;4190868;28;20202;-48
2023/08/11 01:21:35;;;;;;;5.18;2.70;;;;;;;16.32;97.32;99013.13;4205637;28;20210;-48
2023/08/11 01:23:38;;;;;;;2.92;2.67;;;;;;;16.24;97.61;99026.66;4201056;28;20688;-48
2023/08/11 01:25:40;;;;;;;3.85;2.97;;;;;;;16.22;98.08;99032.44;4200673;28;20230;-48
2023/08/11 01:27:54;;;;;;;2.63;2.42;;;;;;;16.17;98.03;99028.84;4202089;28;20207;-48
2023/08/11 01:29:55;;;;;;;3.30;2.53;;;;;;;16.13;98.33;99038.75;4200590;28;20859;-47
2023/08/11 01:31:57;;;;;;;3.35;2.35;;;;;;;16.15;98.12;99026.34;4208022;28;20207;-48
2023/08/11 01:33:59;;;;;;;3.10;2.60;;;;;;;16.13;98.41;99023.03;4201333;28;20211;-48
2023/08/11 01:36:01;;;;;;;3.63;2.38;;;;;;;16.09;98.80;99029.38;4208530;28;20217;-48
2023/08/11 01:38:02;;;;;;;3.78;2.70;;;;;;;16.18;98.72;99020.28;4201177;28;20689;-48
2023/08/11 01:40:10;;;;;;;3.47;2.33;;;;;;;16.23;97.93;99020.28;4200066;28;20219;-48
2023/08/11 01:42:12;;;;;;;4.60;2.30;;;;;;;15.96;98.60;99027.97;4209147;28;20202;-48
2023/08/11 01:44:14;;;;;;;3.45;2.88;;;;;;;16.00;99.05;99028.25;4202062;28;20353;-48
2023/08/11 01:46:16;;;;;;;4.00;2.47;;;;;;;15.93;99.05;99025.75;4205676;28;20604;-48
2023/08/11 01:48:18;;;;;;;3.80;2.63;;;;;;;15.85;99.39;99031.81;4205105;28;20209;-48
2023/08/11 01:50:20;;;;;;;4.35;3.03;;;;;;;15.84;99.30;99035.66;4203589;28;20210;-49
2023/08/11 01:52:23;;;;;;;4.35;2.63;;;;;;;15.89;99.01;99038.44;4186511;28;20227;-48
2023/08/11 01:54:25;;;;;;;4.15;2.03;;;;;;;15.91;98.96;99032.66;4195719;28;20221;-48
2023/08/11 01:56:28;;;;;;;3.38;2.58;;;;;;;15.91;98.65;99036.22;4198849;28;20286;-49
2023/08/11 01:58:29;;;;;;;3.35;2.47;;;;;;;15.97;98.54;99034.31;4195447;28;20207;-49
2023/08/11 02:00:31;;;;;;;3.50;2.95;;;;;;;15.96;98.60;99025.19;4208120;28;20585;-49
2023/08/11 02:02:33;;;;;;;3.40;2.38;;;;;;;15.94;98.65;99029.31;4200107;28;20235;-48
2023/08/11 02:04:35;;;;;;;6.28;2.63;;;;;;;15.86;98.98;99027.94;4202070;28;20243;-48
2023/08/11 02:06:40;;;;;;;2.50;2.22;;;;;;;15.85;98.53;99026.28;4204367;28;20206;-50
2023/08/11 02:08:41;;;;;;;3.30;2.70;;;;;;;15.86;98.66;99022.44;4191160;28;20261;-48
2023/08/11 02:10:45;;;;;;;2.80;2.17;;;;;;;15.89;98.34;99029.34;4203949;28;20241;-48
2023/08/11 02:12:47;;;;;;;4.25;3.92;;;;;;;15.91;98.22;99024.38;4202041;28;20241;-48
2023/08/11 02:14:49;;;;;;;2.90;2.67;;;;;;;15.89;98.79;99021.88;4204769;28;20203;-48
2023/08/11 02:16:51;;;;;;;2.65;2.45;;;;;;;15.89;99.17;99021.06;4194786;28;20277;-48
2023/08/11 02:18:54;;;;;;;5.07;2.58;;;;;;;15.82;99.43;99012.22;4187234;28;20600;-48
2023/08/11 02:20:56;;;;;;;2.75;2.22;;;;;;;15.76;99.58;99022.38;4205854;28;20764;-48
2023/08/11 02:22:58;;;;;;;9.60;2.38;;;;;;;15.74;99.54;99007.19;4201459;28;20314;-48
2023/08/11 02:25:00;;;;;;;3.88;3.13;;;;;;;15.72;99.20;99020.44;4200093;28;20233;-48
2023/08/11 02:27:01;;;;;;;2.97;2.67;;;;;;;15.73;99.03;99017.41;4199600;28;20203;-48
2023/08/11 02:29:03;;;;;;;3.22;2.80;;;;;;;15.71;98.63;99016.84;4200851;28;20634;-48
2023/08/11 02:31:05;;;;;;;4.05;3.75;;;;;;;15.69;99.03;99021.81;4203513;28;20261;-48
2023/08/11 02:33:07;;;;;;;9.77;3.30;;;;;;;15.72;99.25;99023.19;4206749;28;20226;-49
2023/08/11 02:35:12;;;;;;;2.97;2.35;;;;;;;15.63;99.72;99017.38;4213528;28;20301;-48
2023/08/11 02:37:14;;;;;;;4.65;2.45;;;;;;;15.58;99.50;99022.03;4205557;28;20215;-49
2023/08/11 02:39:16;;;;;;;3.90;2.92;;;;;;;15.57;99.89;99023.16;4182747;28;20216;-47
2023/08/11 02:41:18;;;;;;;4.22;2.33;;;;;;;15.49;100.00;99024.47;4207305;28;20218;-47
2023/08/11 02:43:20;;;;;;;3.42;2.78;;;;;;;15.47;100.00;99023.94;4226988;28;20229;-48
2023/08/11 02:45:23;;;;;;;6.47;2.47;;;;;;;15.61;100.00;99025.09;4204623;28;20676;-49
2023/08/11 02:47:25;;;;;;;3.58;3.28;;;;;;;15.52;100.00;99017.59;4206190;28;20207;-48
2023/08/11 02:49:27;;;;;;;6.30;3.42;;;;;;;15.51;99.48;99024.22;4202309;28;20639;-48
2023/08/11 02:51:29;;;;;;;13.00;2.53;;;;;;;15.54;99.94;99021.75;4203300;28;20211;-48
2023/08/11 02:53:31;;;;;;;2.70;2.50;;;;;;;15.55;99.63;99025.34;4189795;28;20277;-48
2023/08/11 02:55:33;;;;;;;12.43;3.03;;;;;;;15.51;99.55;99033.31;4218895;28;20310;-49
2023/08/11 02:57:35;;;;;;;3.83;3.10;;;;;;;15.51;99.53;99030.56;4183457;28;20211;-49
2023/08/11 02:59:37;;;;;;;3.97;2.63;;;;;;;15.47;99.72;99032.22;4219444;28;20338;-48
2023/08/11 03:01:39;;;;;;;3.15;2.75;;;;;;;15.49;99.84;99034.69;4203030;28;20210;-48
2023/08/11 03:03:42;;;;;;;4.60;2.75;;;;;;;15.44;99.74;99045.69;4204549;28;20326;-48
2023/08/11 03:05:44;;;;;;;2.67;2.47;;;;;;;15.42;99.65;99051.47;4223946;28;20234;-48
2023/08/11 03:07:46;;;;;;;3.17;2.88;;;;;;;15.45;99.74;99053.72;4194902;28;20265;-48
2023/08/11 03:09:47;;;;;;;3.30;2.97;;;;;;;15.36;100.00;99055.31;4199352;28;20203;-48
2023/08/11 03:11:49;;;;;;;5.03;2.70;;;;;;;15.32;100.00;99054.19;4201406;28;20214;-48
2023/08/11 03:13:51;;;;;;;2.42;2.22;;;;;;;15.31;100.00;99052.47;4202064;28;20689;-48
2023/08/11 03:15:53;;;;;;;3.40;2.75;;;;;;;15.33;99.88;99053.09;4202341;28;20207;-49
2023/08/11 03:17:56;;;;;;;11.40;2.80;;;;;;;15.45;99.86;99050.97;4203172;28;20221;-48
2023/08/11 03:19:58;;;;;;;5.38;2.70;;;;;;;15.43;100.00;99044.88;4200364;28;20215;-48
2023/08/11 03:22:00;;;;;;;3.83;2.90;;;;;;;15.44;100.00;99034.66;4220163;28;20263;-48
2023/08/11 03:24:02;;;;;;;3.85;3.55;;;;;;;15.17;100.00;99034.75;4221585;28;20212;-48
2023/08/11 03:26:03;;;;;;;2.78;2.58;;;;;;;15.24;100.00;99035.34;4203311;28;20626;-48
2023/08/11 03:28:05;;;;;;;2.72;2.35;;;;;;;15.26;100.00;99032.31;4202128;28;20628;-48
2023/08/11 03:30:09;;;;;;;7.82;2.92;;;;;;;15.18;100.00;99036.44;4186263;28;20216;-49
2023/08/11 03:32:10;;;;;;;3.30;2.80;;;;;;;15.10;100.00;99036.09;4194172;28;20209;-49
2023/08/11 03:34:13;;;;;;;2.85;2.55;;;;;;;15.03;100.00;99044.59;4209963;28;20206;-48
2023/08/11 03:36:15;;;;;;;3.30;3.00;;;;;;;15.06;100.00;99037.72;4186931;28;20685;-48
2023/08/11 03:38:16;;;;;;;2.60;2.40;;;;;;;15.06;100.00;99043.25;4202594;28;20665;-48
2023/08/11 03:40:19;;;;;;;3.22;2.92;;;;;;;15.11;100.00;99046.03;4202279;28;20624;-48
2023/08/11 03:42:20;;;;;;;5.47;2.78;;;;;;;15.01;100.00;99041.28;4203266;28;20300;-48
2023/08/11 03:44:22;;;;;;;3.30;2.97;;;;;;;14.97;100.00;99045.66;4213070;28;20213;-48
2023/08/11 03:46:24;;;;;;;12.77;3.10;;;;;;;14.94;100.00;99043.44;4199571;28;20199;-48
2023/08/11 03:48:26;;;;;;;2.80;2.50;;;;;;;14.97;100.00;99042.91;4221960;28;20294;-48
2023/08/11 03:50:27;;;;;;;3.75;3.35;;;;;;;14.95;100.00;99035.97;4218291;28;20203;-48
2023/08/11 03:52:29;;;;;;;2.80;2.60;;;;;;;14.97;100.00;99039.34;4204483;28;20588;-48
2023/08/11 03:54:31;;;;;;;2.60;2.40;;;;;;;15.00;100.00;99039.63;4191805;28;20218;-48
2023/08/11 03:56:46;;;;;;;3.15;2.95;;;;;;;15.03;100.00;99033.56;4208324;28;20241;-48
2023/08/11 03:58:47;;;;;;;4.00;3.13;;;;;;;14.99;100.00;99035.22;4200014;28;20233;-48
2023/08/11 04:00:49;;;;;;;3.33;3.05;;;;;;;14.98;100.00;99038.22;4201596;28;20213;-49
2023/08/11 04:02:51;;;;;;;8.02;3.33;;;;;;;14.86;100.00;99032.91;4185890;28;20275;-48
2023/08/11 04:04:53;;;;;;;3.22;2.60;;;;;;;14.88;100.00;99039.00;4185654;28;20790;-48
2023/08/11 04:06:54;;;;;;;4.97;2.80;;;;;;;14.91;100.00;99037.63;4202073;28;20209;-48
2023/08/11 04:08:56;;;;;;;6.28;3.08;;;;;;;14.85;100.00;99041.44;4193309;28;20214;-49
2023/08/11 04:10:58;;;;;;;2.50;2.10;;;;;;;14.77;100.00;99034.47;4197089;28;20219;-49
2023/08/11 04:12:59;;;;;;;5.13;2.17;;;;;;;14.73;100.00;99038.88;4203465;28;20218;-48
2023/08/11 04:15:01;;;;;;;2.90;2.47;;;;;;;14.76;100.00;99038.34;4207363;28;20256;-49
2023/08/11 04:17:03;;;;;;;4.35;2.95;;;;;;;14.75;100.00;99042.19;4200227;28;20221;-48
2023/08/11 04:19:05;;;;;;;3.17;2.72;;;;;;;14.80;100.00;99045.00;4202759;28;20253;-48
2023/08/11 04:21:07;;;;;;;4.22;2.78;;;;;;;14.82;100.00;99048.31;4206134;28;20680;-48
2023/08/11 04:23:09;;;;;;;5.88;3.22;;;;;;;14.82;100.00;99050.25;4200450;28;20227;-49
2023/08/11 04:25:12;;;;;;;4.57;3.15;;;;;;;14.81;100.00;99049.41;4216799;28;20225;-47
2023/08/11 04:27:14;;;;;;;3.22;2.83;;;;;;;14.65;100.00;99047.63;4217434;28;20264;-48
2023/08/11 04:29:15;;;;;;;3.65;2.97;;;;;;;14.61;100.00;99046.50;4203418;28;20213;-49
2023/08/11 04:31:17;;;;;;;3.53;3.22;;;;;;;14.62;100.00;99050.09;4186498;28;20211;-48
2023/08/11 04:33:19;;;;;;;9.43;2.75;;;;;;;14.64;100.00;99050.66;4203350;28;20306;-49
2023/08/11 04:35:22;;;;;;;4.13;2.40;;;;;;;14.62;100.00;99050.91;4205519;28;20639;-49
2023/08/11 04:37:24;;;;;;;9.30;3.38;;;;;;;14.66;100.00;99048.44;4205461;28;20771;-49
2023/08/11 04:39:26;;;;;;;8.82;3.13;;;;;;;14.66;100.00;99042.94;4220267;28;20206;-48
2023/08/11 04:41:28;;;;;;;14.20;3.92;;;;;;;14.70;100.00;99044.09;4218090;28;20205;-48
2023/08/11 04:43:30;;;;;;;10.50;3.65;;;;;;;14.76;100.00;99043.84;4201406;28;20671;-49
2023/08/11 04:45:32;;;;;;;6.55;4.07;;;;;;;14.80;100.00;99039.47;4202131;28;20716;-48
2023/08/11 04:47:33;;;;;;;3.58;3.28;;;;;;;14.74;100.00;99045.19;4201993;28;20231;-49
2023/08/11 04:49:35;;;;;;;2.83;2.63;;;;;;;14.73;100.00;99040.78;4203324;28;20198;-49
2023/08/11 04:51:37;;;;;;;4.13;3.53;;;;;;;14.73;100.00;99038.88;4186943;28;20723;-49
2023/08/11 04:53:39;;;;;;;3.92;3.42;;;;;;;14.68;100.00;99041.59;4203144;28;20223;-49
2023/08/11 04:55:40;;;;;;;4.57;3.53;;;;;;;14.62;100.00;99039.88;4203027;28;20203;-49
2023/08/11 04:57:42;;;;;;;3.50;3.20;;;;;;;14.62;100.00;99042.63;4206914;28;20199;-48
2023/08/11 04:59:45;;;;;;;4.18;3.35;;;;;;;14.65;100.00;99036.63;4201168;28;20207;-49
2023/08/11 05:01:48;;;;;;;7.70;2.80;;;;;;;14.69;100.00;99043.25;4198837;28;20334;-48
2023/08/11 05:03:50;;;;;;;5.63;3.00;;;;;;;14.68;100.00;99040.75;4192533;28;20317;-48
2023/08/11 05:05:52;;;;;;;6.68;2.97;;;;;;;14.71;100.00;99052.06;4200927;28;20241;-49
2023/08/11 05:07:54;;;;;;;4.53;2.97;;;;;;;14.75;100.00;99046.88;4203799;28;20232;-48
2023/08/11 05:09:56;;;;;;;6.22;3.55;;;;;;;14.81;100.00;99051.31;4200285;28;20207;-49
2023/08/11 05:11:57;;;;;;;3.92;3.58;;;;;;;14.84;100.00;99050.81;4202341;28;20208;-49
2023/08/11 05:13:59;;;;;;;3.60;2.40;;;;;;;14.90;100.00;99056.06;4199742;28;20959;-49
2023/08/11 05:16:02;;;;;;;3.58;2.83;;;;;;;14.92;100.00;99053.91;4201723;28;20253;-53
2023/08/11 05:18:04;;;;;;;3.67;2.67;;;;;;;14.96;100.00;99059.72;4215815;28;20213;-49
2023/08/11 05:20:07;;;;;;;6.00;3.35;;;;;;;14.97;100.00;99061.38;4203911;28;20209;-49
2023/08/11 05:22:09;;;;;;;4.78;2.72;;;;;;;15.01;100.00;99057.81;4203457;28;20211;-48
2023/08/11 05:24:11;;;;;;;6.22;2.63;;;;;;;15.04;100.00;99057.28;4199978;28;20203;-48
2023/08/11 05:26:12;;;;;;;3.17;2.65;;;;;;;15.11;100.00;99063.38;4186917;28;20720;-49
2023/08/11 05:28:15;;;;;;;3.20;2.63;;;;;;;15.16;100.00;99066.19;4201262;28;20206;-48
2023/08/11 05:30:17;;;;;;;2.38;2.17;;;;;;;15.19;100.00;99065.66;4185819;28;20207;-49
2023/08/11 05:32:18;;;;;;;4.13;3.05;;;;;;;15.26;100.00;99060.75;4207250;28;20203;-49
2023/08/11 05:34:20;;;;;;;3.17;2.88;;;;;;;15.39;100.00;99064.97;4201529;28;20206;-48
2023/08/11 05:36:22;;;;;;;3.92;2.80;;;;;;;15.44;100.00;99073.28;4201292;28;20207;-49
2023/08/11 05:38:23;;;;;;;6.05;2.92;;;;;;;15.40;100.00;99067.47;4198964;28;20210;-49
2023/08/11 05:40:26;;;;;;;6.63;2.92;;;;;;;15.43;100.00;99072.44;4204576;28;20611;-49
2023/08/11 05:42:28;;;;;;;6.25;3.97;;;;;;;15.62;100.00;99070.06;4190156;28;20227;-48
2023/08/11 05:44:29;;;;;;;3.67;3.38;;;;;;;15.72;100.00;99068.19;4207363;28;20206;-48
2023/08/11 05:46:31;;;;;;;5.32;3.05;;;;;;;15.81;100.00;99061.03;4211469;28;20245;-49
2023/08/11 05:48:36;;;;;;;5.10;3.63;;;;;;;16.02;100.00;99065.53;4192825;28;20218;-49
2023/08/11 05:50:39;;;;;;;6.13;3.47;;;;;;;16.09;100.00;99071.63;4210817;28;20290;-49
2023/08/11 05:52:40;;;;;;;6.75;2.60;;;;;;;16.23;100.00;99060.91;4219231;28;20764;-49
2023/08/11 05:54:42;;;;;;;4.15;3.80;;;;;;;16.30;100.00;99067.00;4188083;28;20299;-48
2023/08/11 05:56:44;;;;;;;3.75;3.45;;;;;;;16.58;100.00;99055.44;4210464;28;20240;-48
2023/08/11 05:58:46;;;;;;;7.28;3.78;;;;;;;16.78;100.00;99063.75;4206636;28;20210;-49
2023/08/11 06:00:48;;;;;;;5.38;3.63;;;;;;;16.92;100.00;99062.06;4189357;28;20273;-48
2023/08/11 06:02:53;;;;;;;3.97;3.58;;;;;;;17.02;100.00;99057.38;4202372;28;20651;-49
2023/08/11 06:04:54;;;;;;;5.45;2.85;;;;;;;17.21;99.87;99063.97;4227035;28;20234;-48
2023/08/11 06:06:56;;;;;;;3.60;3.28;;;;;;;17.37;98.37;99073.94;4204062;28;20223;-49
2023/08/11 06:09:00;;;;;;;4.40;3.63;;;;;;;17.51;96.40;99063.94;4206794;28;20211;-49
2023/08/11 06:11:02;;;;;;;10.23;3.75;;;;;;;17.78;96.11;99070.75;4204224;28;20207;-48
2023/08/11 06:13:04;;;;;;;5.40;3.83;;;;;;;17.45;95.66;99070.59;4214314;28;20230;-49
2023/08/11 06:15:06;;;;;;;3.72;3.42;;;;;;;17.58;96.19;99059.75;4203466;28;20206;-49
2023/08/11 06:17:08;;;;;;;4.43;3.60;;;;;;;17.51;98.19;99069.50;4188921;28;20207;-48
2023/08/11 06:19:13;;;;;;;4.18;3.78;;;;;;;17.63;98.86;99073.59;4203363;28;20217;-49
2023/08/11 06:21:17;;;;;;;5.05;3.70;;;;;;;17.97;95.96;99068.19;4205587;28;20207;-49
2023/08/11 06:23:19;;;;;;;8.95;2.92;;;;;;;18.19;93.05;99060.31;4201436;28;20219;-50
2023/08/11 06:25:21;;;;;;;4.70;3.10;;;;;;;18.43;93.76;99072.38;4224362;28;20628;-48
2023/08/11 06:27:22;;;;;;;4.20;2.72;;;;;;;18.59;92.29;99063.69;4204708;28;20203;-49
2023/08/11 06:29:24;;;;;;;3.50;3.17;;;;;;;18.71;92.74;99063.34;4207634;28;20203;-48
2023/08/11 06:31:26;;;;;;;2.70;2.50;;;;;;;18.90;91.48;99061.50;4189416;28;20905;-49
2023/08/11 06:33:28;;;;;;;2.88;2.60;;;;;;;19.05;90.60;99064.16;4206760;28;20287;-49
2023/08/11 06:35:30;;;;;;;2.95;2.65;;;;;;;19.22;89.77;99072.88;4187993;28;20207;-49
2023/08/11 06:37:32;;;;;;;3.88;2.80;;;;;;;19.42;88.97;99079.06;4205526;28;20203;-49
2023/08/11 06:39:33;;;;;;;3.25;2.97;;;;;;;19.62;88.00;99080.78;4206548;28;21921;-50
2023/08/11 06:41:35;;;;;;;4.68;2.30;;;;;;;19.70;88.32;99077.38;4208617;28;20206;-49
2023/08/11 06:43:38;;;;;;;2.53;2.33;;;;;;;19.83;87.08;99079.44;4226987;28;20641;-49
2023/08/11 06:45:42;;;;;;;5.60;3.42;;;;;;;19.78;87.32;99085.06;4189219;28;20230;-50
2023/08/11 06:47:44;;;;;;;4.50;2.58;;;;;;;19.68;87.43;99085.16;4205500;28;20226;-51
2023/08/11 06:49:46;;;;;;;5.35;2.85;;;;;;;19.95;86.37;99088.19;4212729;28;20211;-48
2023/08/11 06:51:47;;;;;;;2.65;2.28;;;;;;;19.83;86.93;99087.75;4201107;28;20203;-49
2023/08/11 06:53:49;;;;;;;4.35;2.42;;;;;;;19.95;85.19;99096.50;4205743;28;20407;-48
2023/08/11 06:55:51;;;;;;;4.28;3.38;;;;;;;20.27;85.95;99088.34;4185846;28;20690;-49
2023/08/11 06:57:53;;;;;;;4.32;2.95;;;;;;;20.36;84.51;99097.66;4210100;28;20214;-51
2023/08/11 06:59:56;;;;;;;3.92;2.25;;;;;;;20.72;81.44;99093.25;4199370;28;20214;-48
2023/08/11 07:01:57;;;;;;;5.75;2.13;;;;;;;20.79;81.95;99096.50;4214384;28;20247;-49
2023/08/11 07:03:59;;;;;;;2.70;2.20;;;;;;;21.05;81.75;99095.00;4204891;28;20231;-49
2023/08/11 07:06:03;;;;;;;2.35;1.90;;;;;;;21.73;78.19;99096.84;4205781;28;20714;-50
2023/08/11 07:08:05;;;;;;;2.83;1.90;;;;;;;22.09;76.03;99089.41;4206120;28;20794;-48
2023/08/11 07:10:07;;;;;;;4.68;2.13;;;;;;;21.97;76.00;99096.66;4204416;28;20751;-50
2023/08/11 07:12:09;;;;;;;3.47;2.40;;;;;;;22.35;73.75;99104.47;4206520;28;20307;-48
2023/08/11 07:14:10;;;;;;;3.55;2.22;;;;;;;22.64;72.30;99101.34;4205253;28;20252;-48
2023/08/11 07:16:12;;;;;;;4.05;2.40;;;;;;;21.67;72.87;99097.22;4207690;28;20247;-47
2023/08/11 07:18:14;;;;;;;2.33;2.20;;;;;;;21.39;76.35;99095.50;4218373;27;20992;-49
2023/08/11 07:20:16;;;;;;;3.38;2.40;;;;;;;21.70;77.23;99096.63;4207801;28;20203;-49
2023/08/11 07:22:17;;;;;;;6.20;2.38;;;;;;;22.29;74.34;99088.13;4202669;28;20210;-48
2023/08/11 07:24:19;;;;;;;3.35;2.60;;;;;;;22.87;71.23;99083.47;4199437;28;20225;-50
2023/08/11 07:26:21;;;;;;;4.25;2.30;;;;;;;23.31;70.08;99089.91;4201954;28;20260;-49
2023/08/11 07:28:23;;;;;;;5.00;2.70;;;;;;;23.51;68.49;99082.97;4204048;28;20271;-49
2023/08/11 07:30:25;;;;;;;2.65;2.20;;;;;;;23.67;68.65;99093.44;4199369;28;20259;-49
2023/08/11 07:32:26;;;;;;;3.90;2.30;;;;;;;23.32;69.77;99090.75;4206686;28;20275;-48
2023/08/11 07:34:28;;;;;;;3.70;2.10;;;;;;;23.35;69.50;99090.09;4191742;28;20206;-48
2023/08/11 07:36:30;;;;;;;5.93;3.25;;;;;;;23.89;67.79;99095.38;4197202;28;20216;-49
2023/08/11 07:38:32;;;;;;;4.22;2.28;;;;;;;24.20;66.08;99097.78;4198178;28;20206;-50
2023/08/11 07:40:34;;;;;;;2.92;2.33;;;;;;;23.61;66.15;99089.13;4199293;28;20210;-49
2023/08/11 07:42:35;;;;;;;6.63;2.60;;;;;;;23.60;65.79;99095.03;4202032;28;20225;-50
2023/08/11 07:44:37;;;;;;;3.38;2.60;;;;;;;23.41;70.61;99097.22;4195541;28;20205;-50
2023/08/11 07:46:39;;;;;;;2.78;2.53;;;;;;;23.60;66.23;99097.81;4199812;28;20227;-48
2023/08/11 07:48:41;;;;;;;2.70;1.88;;;;;;;22.83;69.59;99100.03;4197679;28;20213;-48
2023/08/11 07:50:43;;;;;;;4.03;2.78;;;;;;;23.81;67.62;99100.56;4204338;28;20221;-50
2023/08/11 07:52:45;;;;;;;6.22;2.50;;;;;;;23.26;69.12;99100.41;4208455;28;20238;-50
2023/08/11 07:54:49;;;;;;;2.88;2.58;;;;;;;23.04;68.35;99094.78;4203000;28;20216;-50
2023/08/11 07:56:51;;;;;;;3.17;2.38;;;;;;;23.00;69.62;99093.75;4203633;28;20206;-49
2023/08/11 07:58:53;;;;;;;2.25;2.05;;;;;;;23.12;70.83;99096.81;4204763;28;20198;-51
2023/08/11 08:00:55;;;;;;;2.78;2.40;;;;;;;24.29;66.72;99101.44;4216519;28;20210;-50
2023/08/11 08:02:57;;;;;;;3.90;2.25;;;;;;;24.12;66.71;99109.78;4204180;28;20283;-49
2023/08/11 08:04:59;;;;;;;8.85;1.88;;;;;;;24.79;66.23;99104.69;4187021;28;20695;-48
2023/08/11 08:07:13;;;;;;;1.70;1.60;;;;;;;24.61;65.60;99105.81;4221314;28;20228;-48
2023/08/11 08:09:14;;;;;;;2.47;2.08;;;;;;;25.11;66.12;99110.63;4186708;28;20232;-49
2023/08/11 08:11:17;;;;;;;5.57;2.60;;;;;;;25.45;63.77;99102.22;4201349;28;20713;-49
2023/08/11 08:13:18;;;;;;;8.80;2.00;;;;;;;26.10;62.26;99108.31;4209066;28;20575;-48
2023/08/11 08:15:20;;;;;;;10.48;2.35;;;;;;;26.26;61.55;99108.56;4199230;28;20947;-49
2023/08/11 08:17:22;;;;;;;3.40;1.65;;;;;;;26.23;60.56;99107.25;4204056;28;20244;-50
2023/08/11 08:19:24;;;;;;;2.30;2.08;;;;;;;26.28;61.02;99098.66;4198661;28;20214;-50
2023/08/11 08:21:25;;;;;;;3.17;2.30;;;;;;;26.78;59.16;99102.31;4205124;28;20992;-48
2023/08/11 08:23:27;;;;;;;2.85;1.88;;;;;;;26.38;60.02;99098.25;4206013;28;20286;-49
2023/08/11 08:25:29;;;;;;;2.00;1.52;;;;;;;26.68;59.01;99113.97;4198829;28;20259;-49
2023/08/11 08:27:30;;;;;;;3.80;2.03;;;;;;;26.64;58.97;99100.91;4216615;28;20228;-50
2023/08/11 08:29:34;;;;;;;1.92;1.80;;;;;;;26.56;60.52;99099.84;4184954;28;20203;-48
2023/08/11 08:31:35;;;;;;;3.78;1.90;;;;;;;26.86;59.22;99104.25;4202667;28;20617;-49
2023/08/11 08:33:37;;;;;;;4.55;1.98;;;;;;;26.38;57.54;99103.88;4211836;28;20556;-48
2023/08/11 08:35:39;;;;;;;3.38;2.10;;;;;;;25.94;59.99;99093.19;4208323;28;20302;-49
2023/08/11 08:37:41;;;;;;;3.22;2.17;;;;;;;25.69;60.78;99096.88;4216398;28;20651;-50
2023/08/11 08:39:44;;;;;;;2.67;1.88;;;;;;;26.63;57.51;99094.50;4200766;28;20226;-48
2023/08/11 08:41:46;;;;;;;4.40;1.75;;;;;;;26.63;54.50;99097.31;4197075;28;20880;-51
2023/08/11 08:43:48;;;;;;;2.95;1.70;;;;;;;26.60;55.84;99089.56;4199146;28;20226;-48
2023/08/11 08:45:51;;;;;;;5.38;1.70;;;;;;;26.60;56.93;99100.78;4204357;28;20271;-49
2023/08/11 08:47:54;;;;;;;1.92;1.73;;;;;;;27.31;56.25;99093.97;4185716;28;20229;-47
2023/08/11 08:49:58;;;;;;;3.67;1.83;;;;;;;27.76;55.16;99089.22;4186949;28;20210;-49
2023/08/11 08:52:00;;;;;;;1.90;1.52;;;;;;;27.33;52.65;99094.44;4200967;28;20214;-48
2023/08/11 08:54:09;;;;;;;1.80;1.70;;;;;;;26.69;52.82;99095.94;4220151;28;20295;-49
2023/08/11 08:56:12;;;;;;;1.70;1.60;;;;;;;26.52;54.02;99087.59;4203559;28;20247;-48
2023/08/11 08:58:15;;;;;;;3.63;1.83;;;;;;;26.39;54.20;99083.06;4203780;28;20245;-49
2023/08/11 09:00:18;;;;;;;4.53;1.75;;;;;;;26.30;56.34;99082.28;4207600;28;20211;-48
2023/08/11 09:02:20;;;;;;;1.42;1.33;;;;;;;27.49;54.72;99081.38;4202512;28;20215;-50
2023/08/11 09:04:22;;;;;;;12.35;2.55;;;;;;;27.50;53.33;99080.22;4190433;28;20207;-48
2023/08/11 09:06:26;;;;;;;4.13;1.77;;;;;;;27.45;55.04;99074.81;4226118;27;20228;-48
2023/08/11 09:08:31;;;;;;;4.45;2.47;;;;;;;27.50;52.25;99077.41;4200101;28;20201;-48
2023/08/11 09:10:36;;;;;;;10.65;1.60;;;;;;;27.50;54.47;99073.75;4199556;28;20213;-51
2023/08/11 09:12:38;;;;;;;8.77;2.45;;;;;;;27.21;54.59;99071.91;4197923;28;20225;-49
2023/08/11 09:14:42;;;;;;;5.53;2.00;;;;;;;27.70;54.27;99076.50;4192503;28;20271;-50
2023/08/11 09:16:45;;;;;;;4.60;1.40;;;;;;;27.87;52.36;99073.53;4200719;28;20202;-48
2023/08/11 09:18:47;;;;;;;3.28;1.75;;;;;;;26.99;51.94;99074.22;4192436;28;20202;-48
2023/08/11 09:20:49;;;;;;;3.03;1.88;;;;;;;27.20;54.19;99073.06;4194200;28;20218;-50
2023/08/11 09:22:51;;;;;;;1.30;1.20;;;;;;;26.77;52.93;99075.41;4198625;28;20698;-48
2023/08/11 09:24:53;;;;;;;3.55;1.58;;;;;;;27.38;54.26;99071.72;4207871;28;20342;-48
2023/08/11 09:26:58;;;;;;;2.10;1.35;;;;;;;27.23;51.95;99069.56;4205553;28;20702;-47
2023/08/11 09:28:59;;;;;;;2.15;1.77;;;;;;;27.12;52.40;99073.94;4198770;28;20211;-49
2023/08/11 09:31:01;;;;;;;1.98;1.65;;;;;;;27.09;51.67;99074.63;4197437;28;20268;-49
2023/08/11 09:33:03;;;;;;;2.17;1.50;;;;;;;26.71;51.44;99065.53;4195742;28;20231;-47
2023/08/11 09:35:09;;;;;;;2.38;1.55;;;;;;;26.47;52.06;99062.50;4185627;28;20202;-47